Iliysk North Airport

Jump to: basic info | weather | comments

Related pages: nearby airports | nearby navaids

Basic information (top)

Location: lon 43.998299, lat 77.139099, elev 2,343 ft / 714 m msl
Status: small_airport

Weather (top)

Current conditions for Almaty Airport 39nm (72km) S (rec'd 2014/10/20 03:00Z):

UAAA 200300Z 00000MPS 9999 SCT100 BKN200 16/04 Q1016 R88/65D NOSIG

Airport forecast for Almaty Airport 39nm (72km) S (rec'd 2014/10/19 00:18Z):

TAF TAF UAAA 192300Z 2000/2024 23005MPS 9999 SCT050CB BKN100 TX22/2009Z TN08/2001Z 
      TEMPO 2000/2010 02006MPS 
      BECMG 2012/2013 21005MPS 3000 BR FU BKN030CB BKN100 
      TEMPO 2012/2018 0600 
      TEMPO 2018/2024 VRB15MPS TSRA SQ SCT005 BKN010CB OVC100

Latest comments (top)

No comments yet for Iliysk North Airport

More... (top)

See also NOTAMs and nearby airports and navaids, or visit the Iliysk North Airport page at the main OurAirports website..